createdAt,value
2018-03-02T00:01:06.207Z,94041.81
2018-03-02T00:03:35.261Z,94046.17
2018-03-02T00:06:03.529Z,94034.80
2018-03-02T00:08:31.812Z,94045.14
2018-03-02T00:11:00.089Z,94031.88
2018-03-02T00:13:29.125Z,94031.50
2018-03-02T00:15:57.404Z,94028.46
2018-03-02T00:18:27.620Z,94028.98
2018-03-02T00:20:56.664Z,94023.97
2018-03-02T00:23:24.937Z,94024.43
2018-03-02T00:25:53.222Z,94021.12
2018-03-02T00:28:21.497Z,94021.58
2018-03-02T00:30:49.776Z,94024.60
2018-03-02T00:33:18.804Z,94028.61
2018-03-02T00:35:47.084Z,94024.39
2018-03-02T00:38:15.355Z,94028.33
2018-03-02T00:40:44.405Z,94035.22
2018-03-02T00:43:12.677Z,94020.98
2018-03-02T00:45:40.964Z,94034.98
2018-03-02T00:48:09.256Z,94022.26
2018-03-02T00:50:37.508Z,94027.88
2018-03-02T00:53:06.544Z,94026.99
2018-03-02T00:55:34.828Z,94014.98
2018-03-02T00:58:03.095Z,94013.73
2018-03-02T01:00:32.148Z,94005.00
2018-03-02T01:03:00.420Z,94007.50
2018-03-02T01:05:28.704Z,94002.78
2018-03-02T01:07:57.296Z,93982.70
2018-03-02T01:10:25.575Z,93983.47
2018-03-02T01:12:53.848Z,93975.47
2018-03-02T01:15:22.897Z,93970.91
2018-03-02T01:17:51.166Z,93976.71
2018-03-02T01:20:19.451Z,93972.67
2018-03-02T01:22:47.717Z,93972.81
2018-03-02T01:25:16.760Z,93962.59
2018-03-02T01:27:45.033Z,93962.03
2018-03-02T01:30:13.313Z,93960.58
2018-03-02T01:32:41.581Z,93959.52
2018-03-02T01:35:10.628Z,93962.27
2018-03-02T01:37:38.897Z,93963.38
2018-03-02T01:40:07.177Z,93953.91
2018-03-02T01:42:35.448Z,93958.45
2018-03-02T01:45:04.596Z,93942.39
2018-03-02T01:47:32.868Z,93937.63
2018-03-02T01:50:01.150Z,93932.04
2018-03-02T01:52:29.415Z,93935.84
2018-03-02T01:54:58.462Z,93923.14
2018-03-02T01:57:26.737Z,93919.25
2018-03-02T01:59:55.016Z,93918.80
2018-03-02T02:02:24.052Z,93923.51
2018-03-02T02:04:52.332Z,93919.78
2018-03-02T02:07:20.600Z,93917.40
2018-03-02T02:09:48.876Z,93914.14
2018-03-02T02:12:17.912Z,93913.63
2018-03-02T02:14:46.196Z,93905.88
2018-03-02T02:17:15.237Z,93915.11
2018-03-02T02:19:43.520Z,93911.69
2018-03-02T02:22:11.796Z,93909.31
2018-03-02T02:24:40.092Z,93905.43
2018-03-02T02:27:08.361Z,93895.41
2018-03-02T02:29:36.640Z,93894.88
2018-03-02T02:32:04.913Z,93891.30
2018-03-02T02:34:33.966Z,93895.00
2018-03-02T02:37:02.257Z,93881.47
2018-03-02T02:39:30.536Z,93876.19
2018-03-02T02:41:58.810Z,93877.05
2018-03-02T02:44:27.084Z,93865.73
2018-03-02T02:46:55.344Z,93872.46
2018-03-02T02:49:24.410Z,93866.17
2018-03-02T02:51:52.691Z,93869.39
2018-03-02T02:54:21.880Z,93879.28
2018-03-02T02:56:50.161Z,93871.03
2018-03-02T02:59:18.437Z,93875.96
2018-03-02T03:01:47.493Z,93871.40
2018-03-02T03:04:15.765Z,93871.55
2018-03-02T03:06:44.044Z,93859.61
2018-03-02T03:09:12.316Z,93860.74
2018-03-02T03:11:40.596Z,93860.15
2018-03-02T03:14:09.632Z,93854.62
2018-03-02T03:16:37.907Z,93858.63
2018-03-02T03:19:06.180Z,93851.98
2018-03-02T03:21:35.233Z,93850.77
2018-03-02T03:24:03.500Z,93846.39
2018-03-02T03:26:31.784Z,93846.58
2018-03-02T03:29:00.056Z,93848.75
2018-03-02T03:31:29.117Z,93849.69
2018-03-02T03:33:57.380Z,93845.35
2018-03-02T03:36:25.660Z,93840.77
2018-03-02T03:38:53.927Z,93833.99
2018-03-02T03:41:22.207Z,93840.34
2018-03-02T03:43:51.255Z,93838.20
2018-03-02T03:46:19.517Z,93834.30
2018-03-02T03:48:47.805Z,93832.72
2018-03-02T03:51:16.126Z,93828.31
2018-03-02T03:53:45.132Z,93825.30
2018-03-02T03:56:13.400Z,93817.45
2018-03-02T03:58:42.283Z,93820.91
2018-03-02T04:01:10.560Z,93810.66
2018-03-02T04:03:40.517Z,93801.80
2018-03-02T04:06:09.723Z,93805.00
2018-03-02T04:08:37.991Z,93801.39
2018-03-02T04:11:07.020Z,93802.93
2018-03-02T04:13:35.300Z,93808.02
2018-03-02T04:16:03.572Z,93803.41
2018-03-02T04:18:32.620Z,93795.01
2018-03-02T04:21:00.887Z,93790.39
2018-03-02T04:23:29.171Z,93786.57
2018-03-02T04:25:57.559Z,93785.19
2018-03-02T04:28:25.843Z,93788.89
2018-03-02T04:30:54.111Z,93779.22
2018-03-02T04:33:23.190Z,93774.30
2018-03-02T04:35:51.432Z,93780.28
2018-03-02T04:38:19.713Z,93771.56
2018-03-02T04:40:47.984Z,93772.88
2018-03-02T04:43:17.020Z,93772.06
2018-03-02T04:45:45.308Z,93780.03
2018-03-02T04:48:13.579Z,93779.48
2018-03-02T04:50:41.855Z,93778.86
2018-03-02T04:53:10.891Z,93766.28
2018-03-02T04:55:39.172Z,93773.63
2018-03-02T04:58:07.460Z,93767.48
2018-03-02T05:00:35.741Z,93762.58
2018-03-02T05:03:04.013Z,93763.23
2018-03-02T05:05:33.064Z,93761.25
2018-03-02T05:08:01.343Z,93766.08
2018-03-02T05:10:29.632Z,93767.61
2018-03-02T05:12:57.906Z,93764.72
2018-03-02T05:15:26.196Z,93755.91
2018-03-02T05:17:54.468Z,93745.73
2018-03-02T05:20:23.515Z,93746.42
2018-03-02T05:22:51.805Z,93739.52
2018-03-02T05:25:20.097Z,93732.58
2018-03-02T05:27:48.344Z,93732.72
2018-03-02T05:30:16.629Z,93718.57
2018-03-02T05:32:45.659Z,93720.08
2018-03-02T05:35:13.946Z,93711.26
2018-03-02T05:37:42.208Z,93705.10
2018-03-02T05:40:11.252Z,93699.52
2018-03-02T05:42:39.524Z,93717.66
2018-03-02T05:45:07.808Z,93711.45
2018-03-02T05:47:36.081Z,93711.13
2018-03-02T05:50:05.148Z,93710.84
2018-03-02T05:52:33.412Z,93710.70
2018-03-02T05:55:01.689Z,93707.18
2018-03-02T05:57:29.956Z,93703.48
2018-03-02T05:59:58.989Z,93706.04
2018-03-02T06:02:27.253Z,93692.89
2018-03-02T06:04:55.532Z,93697.02
2018-03-02T06:07:24.568Z,93703.98
2018-03-02T06:09:52.864Z,93695.20
2018-03-02T06:12:21.135Z,93708.58
2018-03-02T06:14:49.400Z,93706.22
2018-03-02T06:17:18.448Z,93700.61
2018-03-02T06:19:46.705Z,93702.05
2018-03-02T06:22:14.986Z,93699.45
2018-03-02T06:24:43.248Z,93693.72
2018-03-02T06:27:11.528Z,93697.64
2018-03-02T06:29:39.788Z,93696.88
2018-03-02T06:32:08.064Z,93689.22
2018-03-02T06:34:36.324Z,93685.81
2018-03-02T06:37:05.393Z,93690.56
2018-03-02T06:39:33.629Z,93702.88
2018-03-02T06:42:01.912Z,93688.42
2018-03-02T06:44:30.204Z,93684.48
2018-03-02T06:46:58.475Z,93675.70
2018-03-02T06:49:27.510Z,93684.95
2018-03-02T06:51:55.789Z,93684.27
2018-03-02T06:54:24.056Z,93672.16
2018-03-02T06:56:52.327Z,93666.48
2018-03-02T06:59:20.607Z,93665.81
2018-03-02T07:01:48.876Z,93663.87
2018-03-02T07:04:17.161Z,93669.61
2018-03-02T07:06:45.407Z,93649.69
2018-03-02T07:09:14.433Z,93649.40
2018-03-02T07:11:42.718Z,93664.64
2018-03-02T07:14:10.976Z,93656.10
2018-03-02T07:16:40.012Z,93659.86
2018-03-02T07:19:08.284Z,93664.75
2018-03-02T07:21:37.346Z,93670.77
2018-03-02T07:24:05.600Z,93654.63
2018-03-02T07:26:33.873Z,93661.20
2018-03-02T07:29:02.131Z,93655.82
2018-03-02T07:31:30.416Z,93661.08
2018-03-02T07:33:58.679Z,93651.30
2018-03-02T07:36:26.960Z,93657.09
2018-03-02T07:38:55.216Z,93654.61
2018-03-02T07:41:23.501Z,93650.70
2018-03-02T07:43:51.760Z,93645.49
2018-03-02T07:46:20.804Z,93641.35
2018-03-02T07:48:49.068Z,93632.29
2018-03-02T07:51:18.092Z,93644.60
2018-03-02T07:53:46.360Z,93633.08
2018-03-02T07:56:14.619Z,93616.97
2018-03-02T07:58:42.895Z,93625.44
2018-03-02T08:01:11.553Z,93619.70
2018-03-02T08:03:39.824Z,93617.67
2018-03-02T08:06:08.852Z,93614.73
2018-03-02T08:08:37.129Z,93621.21
2018-03-02T08:11:06.151Z,93615.05
2018-03-02T08:13:34.419Z,93609.97
2018-03-02T08:16:02.684Z,93627.41
2018-03-02T08:18:30.964Z,93616.03
2018-03-02T08:20:59.223Z,93617.48
2018-03-02T08:23:27.509Z,93611.40
2018-03-02T08:25:55.764Z,93616.48
2018-03-02T08:28:24.032Z,93603.90
2018-03-02T08:30:53.056Z,93612.22
2018-03-02T08:33:21.324Z,93600.70
2018-03-02T08:35:50.348Z,93597.28
2018-03-02T08:38:18.615Z,93610.39
2018-03-02T08:40:47.721Z,93607.91
2018-03-02T08:43:15.988Z,93602.38
2018-03-02T08:45:44.240Z,93598.37
2018-03-02T08:48:12.507Z,93586.83
2018-03-02T08:50:40.763Z,93587.98
2018-03-02T08:53:09.042Z,93584.72
2018-03-02T08:55:37.292Z,93586.44
2018-03-02T08:58:05.560Z,93589.33
2018-03-02T09:00:33.816Z,93584.08
2018-03-02T09:03:02.080Z,93584.72
2018-03-02T09:05:30.348Z,93587.31
2018-03-02T09:07:58.610Z,93577.81
2018-03-02T09:10:27.636Z,93583.20
2018-03-02T09:12:55.900Z,93573.99
2018-03-02T09:15:24.164Z,93585.48
2018-03-02T09:17:52.428Z,93572.42
2018-03-02T09:20:20.760Z,93574.61
2018-03-02T09:22:49.036Z,93581.05
2018-03-02T09:25:18.064Z,93573.97
2018-03-02T09:27:47.089Z,93574.50
2018-03-02T09:30:16.104Z,93578.75
2018-03-02T09:32:44.389Z,93569.61
2018-03-02T09:35:13.407Z,93572.09
2018-03-02T09:37:41.672Z,93572.91
2018-03-02T09:40:09.924Z,93580.03
2018-03-02T09:42:38.960Z,93573.58
2018-03-02T09:45:07.212Z,93571.48
2018-03-02T09:47:35.488Z,93567.96
2018-03-02T09:50:03.739Z,93568.36
2018-03-02T09:52:31.996Z,93567.89
2018-03-02T09:55:01.019Z,93565.24
2018-03-02T09:57:29.280Z,93561.84
2018-03-02T09:59:58.305Z,93574.22
2018-03-02T10:02:26.577Z,93564.52
2018-03-02T10:04:55.597Z,93566.48
2018-03-02T10:07:23.864Z,93570.43
2018-03-02T10:09:52.128Z,93568.55
2018-03-02T10:12:20.400Z,93558.01
2018-03-02T10:14:48.651Z,93558.67
2018-03-02T10:17:16.919Z,93556.21
2018-03-02T10:19:45.938Z,93556.71
2018-03-02T10:22:14.205Z,93556.82
2018-03-02T10:24:42.465Z,93563.77
2018-03-02T10:27:10.740Z,93553.30
2018-03-02T10:29:38.991Z,93563.43
2018-03-02T10:32:07.256Z,93563.84
2018-03-02T10:34:36.280Z,93571.05
2018-03-02T10:37:05.325Z,93561.47
2018-03-02T10:39:33.592Z,93559.95
2018-03-02T10:42:01.850Z,93552.32
2018-03-02T10:44:30.873Z,93553.21
2018-03-02T10:46:59.136Z,93554.23
2018-03-02T10:49:28.176Z,93555.82
2018-03-02T10:51:56.476Z,93551.45
2018-03-02T10:54:24.749Z,93545.23
2018-03-02T10:56:53.010Z,93554.89
2018-03-02T10:59:21.283Z,93545.15
2018-03-02T11:01:54.345Z,93554.27
2018-03-02T11:04:37.508Z,93548.22
2018-03-02T11:07:05.770Z,93557.48
2018-03-02T11:09:34.031Z,93549.80
2018-03-02T11:12:02.292Z,93574.38
2018-03-02T11:14:30.556Z,93554.60
2018-03-02T11:16:58.813Z,93557.98
2018-03-02T11:19:27.076Z,93555.42
2018-03-02T11:21:56.101Z,93543.77
2018-03-02T11:24:24.368Z,93551.27
2018-03-02T11:26:53.389Z,93541.59
2018-03-02T11:29:21.980Z,93535.86
2018-03-02T11:31:50.240Z,93529.13
2018-03-02T11:34:18.504Z,93525.64
2018-03-02T11:36:46.769Z,93528.30
2018-03-02T11:39:15.046Z,93519.64
2018-03-02T11:41:43.300Z,93520.07
2018-03-02T11:44:12.329Z,93517.57
2018-03-02T11:46:40.586Z,93511.88
2018-03-02T11:49:08.848Z,93499.34
2018-03-02T11:51:37.100Z,93486.88
2018-03-02T11:54:05.401Z,93485.94
2018-03-02T11:56:34.388Z,93477.93
2018-03-02T11:59:02.651Z,93480.77
2018-03-02T12:01:31.683Z,93484.55
2018-03-02T12:03:59.948Z,93478.06
2018-03-02T12:06:28.968Z,93484.39
2018-03-02T12:08:57.244Z,93472.97
2018-03-02T12:11:26.269Z,93471.75
2018-03-02T12:13:54.536Z,93476.20
2018-03-02T12:16:23.555Z,93479.37
2018-03-02T12:18:51.825Z,93478.10
2018-03-02T12:21:20.853Z,93480.03
2018-03-02T12:23:49.887Z,93482.33
2018-03-02T12:26:18.148Z,93484.72
2018-03-02T12:28:46.411Z,93495.56
2018-03-02T12:31:14.668Z,93490.78
2018-03-02T12:33:42.988Z,93482.53
2018-03-02T12:36:11.189Z,93476.73
2018-03-02T12:38:40.223Z,93479.80
2018-03-02T12:41:08.485Z,93488.64
2018-03-02T12:43:37.516Z,93485.40
2018-03-02T12:46:05.775Z,93484.73
2018-03-02T12:48:34.908Z,93480.77
2018-03-02T12:51:03.160Z,93481.48
2018-03-02T12:53:32.203Z,93487.53
2018-03-02T12:56:00.460Z,93484.91
2018-03-02T12:58:29.500Z,93487.09
2018-03-02T13:00:57.755Z,93481.08
2018-03-02T13:03:26.792Z,93482.38
2018-03-02T13:05:55.059Z,93479.57
2018-03-02T13:08:24.089Z,93492.34
2018-03-02T13:10:52.344Z,93488.03
2018-03-02T13:13:21.383Z,93481.75
2018-03-02T13:15:49.644Z,93491.47
2018-03-02T13:18:36.473Z,93487.83
2018-03-02T13:21:04.964Z,93483.63
2018-03-02T13:23:34.006Z,93470.64
2018-03-02T13:26:02.270Z,93476.59
2018-03-02T13:28:46.292Z,93484.63
2018-03-02T13:31:14.552Z,93486.55
2018-03-02T13:34:00.671Z,93479.77
2018-03-02T13:36:28.987Z,93478.59
2018-03-02T13:38:57.249Z,93483.50
2018-03-02T13:41:43.412Z,93478.47
2018-03-02T13:44:11.679Z,93480.76
2018-03-02T13:46:40.708Z,93479.70
2018-03-02T13:49:26.843Z,93486.89
2018-03-02T13:51:55.092Z,93486.05
2018-03-02T13:54:23.394Z,93475.84
2018-03-02T13:57:09.356Z,93489.20
2018-03-02T13:59:37.620Z,93483.88
2018-03-02T14:02:05.878Z,93486.34
2018-03-02T14:04:53.044Z,93475.70
2018-03-02T14:07:21.315Z,93483.67
2018-03-02T14:09:49.603Z,93475.96
2018-03-02T14:12:17.863Z,93478.48
2018-03-02T14:14:46.128Z,93481.99
2018-03-02T14:17:15.167Z,93478.98
2018-03-02T14:19:44.188Z,93483.23
2018-03-02T14:22:12.454Z,93485.38
2018-03-02T14:24:42.311Z,93492.67
2018-03-02T14:27:10.568Z,93495.75
2018-03-02T14:29:38.844Z,93489.27
2018-03-02T14:32:07.872Z,93491.84
2018-03-02T14:34:36.133Z,93478.94
2018-03-02T14:37:05.160Z,93489.00
2018-03-02T14:39:33.462Z,93480.27
2018-03-02T14:42:02.453Z,93481.85
2018-03-02T14:44:30.703Z,93477.61
2018-03-02T14:46:58.967Z,93480.76
2018-03-02T14:49:27.215Z,93475.97
2018-03-02T14:51:55.483Z,93475.36
2018-03-02T14:54:24.499Z,93465.55
2018-03-02T14:56:52.765Z,93468.89
2018-03-02T14:59:21.048Z,93468.76
2018-03-02T15:01:49.308Z,93472.97
2018-03-02T15:04:17.563Z,93466.49
2018-03-02T15:06:45.828Z,93463.06
2018-03-02T15:09:14.848Z,93465.62
2018-03-02T15:11:43.114Z,93472.54
2018-03-02T15:14:11.363Z,93477.87
2018-03-02T15:16:39.627Z,93478.44
2018-03-02T15:19:07.879Z,93484.75
2018-03-02T15:21:36.915Z,93474.33
2018-03-02T15:24:05.174Z,93477.31
2018-03-02T15:26:34.206Z,93475.70
2018-03-02T15:29:02.467Z,93478.36
2018-03-02T15:31:31.492Z,93476.69
2018-03-02T15:33:59.762Z,93486.41
2018-03-02T15:36:28.792Z,93485.80
2018-03-02T15:38:57.047Z,93481.94
2018-03-02T15:41:25.315Z,93487.01
2018-03-02T15:43:53.576Z,93489.12
2018-03-02T15:46:21.840Z,93490.16
2018-03-02T15:48:50.099Z,93491.13
2018-03-02T15:51:18.366Z,93492.50
2018-03-02T15:53:46.620Z,93500.67
2018-03-02T15:56:14.892Z,93495.25
2018-03-02T15:58:43.147Z,93496.52
2018-03-02T16:01:11.420Z,93494.04
2018-03-02T16:03:39.674Z,93498.64
2018-03-02T16:06:07.940Z,93505.39
2018-03-02T16:08:36.963Z,93505.39
2018-03-02T16:11:05.232Z,93505.88
2018-03-02T16:13:34.248Z,93506.72
2018-03-02T16:16:02.525Z,93513.94
2018-03-02T16:18:31.544Z,93514.20
2018-03-02T16:20:59.808Z,93521.87
2018-03-02T16:23:28.826Z,93523.56
2018-03-02T16:25:57.110Z,93536.17
2018-03-02T16:28:26.131Z,93524.42
2018-03-02T16:30:54.400Z,93523.91
2018-03-02T16:33:23.422Z,93533.08
2018-03-02T16:35:51.684Z,93540.59
2018-03-02T16:38:20.707Z,93540.59
2018-03-02T16:40:48.975Z,93540.47
2018-03-02T16:43:17.999Z,93541.98
2018-03-02T16:45:46.284Z,93552.16
2018-03-02T16:48:15.300Z,93553.20
2018-03-02T16:50:44.006Z,93547.56
2018-03-02T16:53:13.082Z,93555.41
2018-03-02T16:55:41.365Z,93545.55
2018-03-02T16:58:09.617Z,93560.87
2018-03-02T17:00:38.651Z,93555.64
2018-03-02T17:03:06.908Z,93555.02
2018-03-02T17:05:35.211Z,93555.67
2018-03-02T17:08:03.431Z,93566.79
2018-03-02T17:10:32.455Z,93556.17
2018-03-02T17:13:00.723Z,93567.23
2018-03-02T17:15:29.748Z,93558.13
2018-03-02T17:17:58.020Z,93566.11
2018-03-02T17:20:27.046Z,93574.92
2018-03-02T17:22:55.302Z,93583.09
2018-03-02T17:25:23.558Z,93584.22
2018-03-02T17:27:51.828Z,93593.45
2018-03-02T17:30:20.086Z,93600.67
2018-03-02T17:32:49.116Z,93601.61
2018-03-02T17:35:17.371Z,93612.09
2018-03-02T17:37:46.403Z,93605.17
2018-03-02T17:40:14.659Z,93609.17
2018-03-02T17:42:43.691Z,93611.64
2018-03-02T17:45:11.985Z,93623.95
2018-03-02T17:47:40.256Z,93625.82
2018-03-02T17:50:09.279Z,93634.70
2018-03-02T17:52:37.559Z,93635.33
2018-03-02T17:55:06.580Z,93642.58
2018-03-02T17:57:34.843Z,93635.30
2018-03-02T18:00:03.914Z,93642.31
2018-03-02T18:02:32.131Z,93643.64
2018-03-02T18:05:01.159Z,93650.28
2018-03-02T18:07:29.439Z,93650.90
2018-03-02T18:09:58.450Z,93645.55
2018-03-02T18:12:26.719Z,93656.45
2018-03-02T18:14:55.747Z,93659.27
2018-03-02T18:17:24.011Z,93659.30
2018-03-02T18:19:53.039Z,93654.84
2018-03-02T18:22:21.324Z,93649.83
2018-03-02T18:24:49.578Z,93645.89
2018-03-02T18:27:17.848Z,93642.87
2018-03-02T18:29:46.111Z,93653.46
2018-03-02T18:32:14.379Z,93659.15
2018-03-02T18:34:42.637Z,93654.23
2018-03-02T18:37:10.907Z,93650.70
2018-03-02T18:39:39.167Z,93644.78
2018-03-02T18:42:07.435Z,93652.47
2018-03-02T18:44:35.693Z,93657.67
2018-03-02T18:47:04.727Z,93655.84
2018-03-02T18:49:32.998Z,93658.99
2018-03-02T18:52:02.031Z,93657.82
2018-03-02T18:54:30.300Z,93651.70
2018-03-02T18:56:58.562Z,93656.91
2018-03-02T18:59:26.820Z,93660.44
2018-03-02T19:01:55.091Z,93670.54
2018-03-02T19:04:23.351Z,93662.58
2018-03-02T19:06:51.629Z,93674.14
2018-03-02T19:09:20.643Z,93669.46
2018-03-02T19:11:48.911Z,93665.38
2018-03-02T19:14:17.163Z,93677.94
2018-03-02T19:16:45.427Z,93661.43
2018-03-02T19:19:13.687Z,93664.03
2018-03-02T19:21:42.755Z,93662.12
2018-03-02T19:24:11.011Z,93664.42
2018-03-02T19:26:39.279Z,93666.63
2018-03-02T19:29:08.308Z,93654.09
2018-03-02T19:31:36.572Z,93664.06
2018-03-02T19:34:04.827Z,93663.32
2018-03-02T19:36:33.083Z,93663.07
2018-03-02T19:39:01.351Z,93668.64
2018-03-02T19:41:29.607Z,93672.02
2018-03-02T19:43:58.639Z,93666.25
2018-03-02T19:46:26.903Z,93668.72
2018-03-02T19:48:55.930Z,93666.84
2018-03-02T19:51:24.187Z,93668.31
2018-03-02T19:53:52.459Z,93672.45
2018-03-02T19:56:20.715Z,93670.58
2018-03-02T19:58:48.984Z,93664.16
2018-03-02T20:01:17.247Z,93669.08
2018-03-02T20:03:46.344Z,93664.64
2018-03-02T20:06:14.559Z,93671.23
2018-03-02T20:08:42.827Z,93670.22
2018-03-02T20:11:11.890Z,93679.41
2018-03-02T20:13:40.124Z,93684.77
2018-03-02T20:16:09.148Z,93698.17
2018-03-02T20:18:37.418Z,93689.95
2018-03-02T20:21:06.448Z,93689.84
2018-03-02T20:23:34.716Z,93687.43
2018-03-02T20:26:03.743Z,93693.13
2018-03-02T20:28:32.007Z,93692.77
2018-03-02T20:31:01.036Z,93680.13
2018-03-02T20:33:29.304Z,93673.50
2018-03-02T20:35:58.328Z,93676.16
2018-03-02T20:38:26.599Z,93684.41
2018-03-02T20:40:55.627Z,93668.98
2018-03-02T20:43:23.887Z,93673.20
2018-03-02T20:45:52.911Z,93663.08
2018-03-02T20:48:21.179Z,93655.84
2018-03-02T20:50:50.220Z,93659.20
2018-03-02T20:53:18.483Z,93656.87
2018-03-02T20:55:47.507Z,93659.86
2018-03-02T20:58:15.824Z,93655.80
2018-03-02T21:00:44.044Z,93648.88
2018-03-02T21:03:12.311Z,93646.83
2018-03-02T21:05:40.575Z,93645.03
2018-03-02T21:08:08.847Z,93639.66
2018-03-02T21:10:37.106Z,93643.52
2018-03-02T21:13:05.373Z,93643.70
2018-03-02T21:15:33.631Z,93646.67
2018-03-02T21:18:01.900Z,93642.63
2018-03-02T21:20:30.156Z,93637.91
2018-03-02T21:22:59.205Z,93644.37
2018-03-02T21:25:27.442Z,93635.67
2018-03-02T21:27:55.707Z,93637.47
2018-03-02T21:30:23.972Z,93638.42
2018-03-02T21:32:52.235Z,93643.35
2018-03-02T21:35:20.492Z,93633.28
2018-03-02T21:37:48.759Z,93644.11
2018-03-02T21:40:17.015Z,93643.66
2018-03-02T21:42:45.279Z,93640.11
2018-03-02T21:45:14.300Z,93640.04
2018-03-02T21:47:42.556Z,93643.86
2018-03-02T21:50:10.827Z,93648.52
2018-03-02T21:52:39.083Z,93649.16
2018-03-02T21:55:07.352Z,93646.28
2018-03-02T21:57:35.606Z,93650.16
2018-03-02T22:00:03.871Z,93638.94
2018-03-02T22:02:32.129Z,93634.27
2018-03-02T22:05:00.396Z,93641.69
2018-03-02T22:07:28.652Z,93639.90
2018-03-02T22:09:56.920Z,93634.98
2018-03-02T22:12:25.175Z,93638.61
2018-03-02T22:14:54.207Z,93644.96
2018-03-02T22:17:22.472Z,93641.59
2018-03-02T22:19:51.427Z,93644.42
2018-03-02T22:22:19.679Z,93642.98
2018-03-02T22:24:47.946Z,93636.89
2018-03-02T22:27:16.203Z,93626.98
2018-03-02T22:29:45.239Z,93629.29
2018-03-02T22:32:13.494Z,93628.75
2018-03-02T22:34:41.759Z,93627.85
2018-03-02T22:37:10.018Z,93624.13
2018-03-02T22:39:38.280Z,93629.08
2018-03-02T22:42:06.554Z,93631.20
2018-03-02T22:44:34.802Z,93641.50
2018-03-02T22:47:03.056Z,93638.63
2018-03-02T22:49:31.319Z,93639.25
2018-03-02T22:52:00.341Z,93635.15
2018-03-02T22:54:28.603Z,93641.42
2018-03-02T22:56:57.637Z,93635.78
2018-03-02T22:59:25.903Z,93637.09
2018-03-02T23:01:54.930Z,93646.33
2018-03-02T23:04:23.206Z,93640.20
2018-03-02T23:06:52.235Z,93648.09
2018-03-02T23:09:20.506Z,93643.01
2018-03-02T23:11:49.532Z,93639.41
2018-03-02T23:14:17.800Z,93644.28
2018-03-02T23:16:46.819Z,93638.23
2018-03-02T23:19:15.088Z,93645.80
2018-03-02T23:21:44.811Z,93642.32
2018-03-02T23:24:13.847Z,93643.55
2018-03-02T23:26:42.103Z,93648.14
2018-03-02T23:29:11.146Z,93638.13
2018-03-02T23:31:39.399Z,93644.39
2018-03-02T23:34:08.436Z,93640.36
2018-03-02T23:36:36.691Z,93645.45
2018-03-02T23:39:05.724Z,93640.52
2018-03-02T23:41:33.980Z,93632.38
2018-03-02T23:44:03.011Z,93643.52
2018-03-02T23:46:31.271Z,93636.36
2018-03-02T23:49:00.308Z,93634.04
2018-03-02T23:51:28.559Z,93631.03
2018-03-02T23:53:57.597Z,93628.34
2018-03-02T23:56:25.850Z,93634.12
2018-03-02T23:58:54.115Z,93636.46
